createdAt,value
2018-10-18T00:00:45.605Z,91.90
2018-10-18T00:03:15.008Z,91.83
2018-10-18T00:05:44.523Z,96.63
2018-10-18T00:08:13.289Z,94.67
2018-10-18T00:10:45.840Z,94.53
2018-10-18T00:13:15.324Z,92.47
2018-10-18T00:15:48.752Z,93.00
2018-10-18T00:18:18.021Z,95.90
2018-10-18T00:20:52.724Z,89.53
2018-10-18T00:23:21.921Z,94.07
2018-10-18T00:25:55.440Z,103.03
2018-10-18T00:28:24.650Z,98.17
2018-10-18T00:30:58.293Z,94.53
2018-10-18T00:33:27.002Z,95.67
2018-10-18T00:36:00.976Z,93.37
2018-10-18T00:38:30.511Z,97.13
2018-10-18T00:41:03.457Z,93.13
2018-10-18T00:43:32.702Z,92.10
2018-10-18T00:46:06.216Z,91.87
2018-10-18T00:48:35.737Z,101.23
2018-10-18T00:51:09.865Z,96.13
2018-10-18T00:53:39.329Z,88.37
2018-10-18T00:56:13.320Z,99.40
2018-10-18T00:58:42.059Z,96.97
2018-10-18T01:01:22.949Z,100.53
2018-10-18T01:03:51.658Z,93.37
2018-10-18T01:06:21.128Z,100.97
2018-10-18T01:08:50.335Z,91.87
2018-10-18T01:11:21.628Z,90.37
2018-10-18T01:13:51.117Z,95.33
2018-10-18T01:16:24.017Z,98.80
2018-10-18T01:18:53.213Z,98.00
2018-10-18T01:21:26.005Z,97.43
2018-10-18T01:23:54.727Z,93.67
2018-10-18T01:26:28.016Z,99.47
2018-10-18T01:28:57.508Z,104.10
2018-10-18T01:31:29.340Z,89.90
2018-10-18T01:33:58.501Z,92.17
2018-10-18T01:36:33.587Z,98.50
2018-10-18T01:39:02.329Z,99.43
2018-10-18T01:41:35.743Z,96.23
2018-10-18T01:44:04.478Z,95.10
2018-10-18T01:46:46.250Z,97.57
2018-10-18T01:49:16.659Z,93.73
2018-10-18T01:51:45.881Z,103.63
2018-10-18T01:54:14.658Z,98.43
2018-10-18T01:56:45.302Z,94.67
2018-10-18T01:59:14.517Z,106.50
2018-10-18T02:01:48.305Z,85.63
2018-10-18T02:04:17.797Z,90.63
2018-10-18T02:06:50.785Z,98.03
2018-10-18T02:09:19.508Z,86.73
2018-10-18T02:11:54.237Z,99.47
2018-10-18T02:14:23.448Z,81.40
2018-10-18T02:16:56.773Z,86.20
2018-10-18T02:19:26.342Z,85.70
2018-10-18T02:21:58.626Z,86.00
2018-10-18T02:24:27.904Z,82.10
2018-10-18T02:27:01.372Z,81.40
2018-10-18T02:29:30.572Z,73.80
2018-10-18T02:32:04.432Z,82.43
2018-10-18T02:34:33.424Z,74.50
2018-10-18T02:37:07.526Z,77.10
2018-10-18T02:39:36.233Z,69.70
2018-10-18T02:44:38.712Z,70.90
2018-10-18T02:47:12.247Z,73.77
2018-10-18T02:49:40.972Z,73.67
2018-10-18T02:54:45.362Z,67.73
2018-10-18T02:57:20.221Z,67.13
2018-10-18T02:59:49.482Z,68.10
2018-10-18T03:02:22.460Z,67.33
2018-10-18T03:04:51.626Z,71.53
2018-10-18T03:07:24.127Z,67.30
2018-10-18T03:09:53.305Z,70.33
2018-10-18T03:12:26.693Z,70.40
2018-10-18T03:14:55.664Z,67.87
2018-10-18T03:17:37.353Z,73.20
2018-10-18T03:20:07.029Z,68.80
2018-10-18T03:22:36.323Z,69.90
2018-10-18T03:25:06.122Z,67.20
2018-10-18T03:27:35.949Z,66.20
2018-10-18T03:30:05.848Z,71.07
2018-10-18T03:32:38.086Z,66.10
2018-10-18T03:35:08.440Z,68.93
2018-10-18T03:37:40.541Z,67.17
2018-10-18T03:40:10.364Z,66.63
2018-10-18T03:42:43.420Z,68.40
2018-10-18T03:45:12.603Z,65.47
2018-10-18T03:47:55.333Z,69.50
2018-10-18T03:50:24.356Z,64.37
2018-10-18T03:52:53.554Z,67.57
2018-10-18T03:55:22.257Z,74.07
2018-10-18T03:57:51.901Z,66.80
2018-10-18T04:00:21.182Z,71.33
2018-10-18T04:02:54.283Z,75.87
2018-10-18T04:05:23.826Z,76.67
2018-10-18T04:08:05.607Z,77.63
2018-10-18T04:10:34.608Z,80.03
2018-10-18T04:13:03.360Z,75.30
2018-10-18T04:15:32.648Z,80.00
2018-10-18T04:18:02.683Z,79.67
2018-10-18T04:20:31.368Z,82.07
2018-10-18T04:23:05.669Z,75.93
2018-10-18T04:25:35.301Z,79.37
2018-10-18T04:28:09.982Z,76.93
2018-10-18T04:30:39.173Z,75.50
2018-10-18T04:33:20.896Z,81.13
2018-10-18T04:35:49.909Z,81.60
2018-10-18T04:38:19.121Z,74.47
2018-10-18T04:40:48.324Z,73.73
2018-10-18T04:43:17.452Z,81.20
2018-10-18T04:45:46.197Z,78.30
2018-10-18T04:48:28.746Z,77.67
2018-10-18T04:50:58.279Z,82.57
2018-10-18T04:53:27.068Z,69.17
2018-10-18T04:55:56.309Z,72.03
2018-10-18T04:58:25.782Z,81.60
2018-10-18T05:00:55.033Z,74.57
2018-10-18T05:03:27.523Z,79.97
2018-10-18T05:06:01.252Z,78.50
2018-10-18T05:08:30.705Z,77.73
2018-10-18T05:10:59.468Z,76.97
2018-10-18T05:13:31.789Z,78.90
2018-10-18T05:16:00.854Z,73.77
2018-10-18T05:18:34.068Z,70.43
2018-10-18T05:21:03.281Z,70.83
2018-10-18T05:23:36.101Z,73.13
2018-10-18T05:26:05.557Z,75.67
2018-10-18T05:28:37.917Z,65.60
2018-10-18T05:31:07.542Z,71.30
2018-10-18T05:33:49.597Z,66.53
2018-10-18T05:36:19.616Z,64.37
2018-10-18T05:38:48.319Z,67.03
2018-10-18T05:41:17.016Z,64.83
2018-10-18T05:43:48.329Z,70.50
2018-10-18T05:46:17.561Z,67.93
2018-10-18T05:48:51.048Z,64.97
2018-10-18T05:51:20.520Z,65.17
2018-10-18T05:54:02.910Z,65.83
2018-10-18T05:56:31.780Z,74.77
2018-10-18T05:59:01.025Z,62.17
2018-10-18T06:01:30.325Z,68.20
2018-10-18T06:04:00.557Z,67.57
2018-10-18T06:06:29.289Z,62.33
2018-10-18T06:09:03.397Z,59.03
2018-10-18T06:11:33.269Z,62.70
2018-10-18T06:14:06.192Z,71.33
2018-10-18T06:16:35.721Z,65.57
2018-10-18T06:19:08.791Z,59.83
2018-10-18T06:21:38.029Z,67.20
2018-10-18T06:24:11.978Z,61.57
2018-10-18T06:26:40.663Z,67.83
2018-10-18T06:29:14.755Z,67.23
2018-10-18T06:31:43.480Z,58.37
2018-10-18T06:34:16.406Z,60.60
2018-10-18T06:36:45.381Z,64.30
2018-10-18T06:39:19.318Z,57.80
2018-10-18T06:41:48.460Z,63.93
2018-10-18T06:44:29.569Z,64.07
2018-10-18T06:46:59.182Z,61.27
2018-10-18T06:49:28.414Z,62.30
2018-10-18T06:51:57.444Z,63.37
2018-10-18T06:54:27.008Z,54.83
2018-10-18T06:56:55.744Z,54.83
2018-10-18T06:59:28.029Z,57.37
2018-10-18T07:01:57.330Z,62.87
2018-10-18T07:04:30.432Z,61.37
2018-10-18T07:06:59.966Z,62.57
2018-10-18T07:09:42.250Z,56.20
2018-10-18T07:12:11.845Z,59.40
2018-10-18T07:14:40.516Z,59.27
2018-10-18T07:17:09.251Z,58.70
2018-10-18T07:19:38.529Z,58.30
2018-10-18T07:22:07.239Z,52.70
2018-10-18T07:24:49.270Z,56.80
2018-10-18T07:27:18.479Z,53.30
2018-10-18T07:29:47.978Z,53.53
2018-10-18T07:32:16.672Z,58.03
2018-10-18T07:34:46.141Z,51.20
2018-10-18T07:37:15.658Z,52.27
2018-10-18T07:42:24.625Z,53.63
2018-10-18T07:44:53.969Z,53.60
2018-10-18T07:47:22.696Z,61.10
2018-10-18T07:49:54.671Z,139.20
2018-10-18T07:52:23.394Z,73.23
2018-10-18T07:54:57.439Z,80.63
2018-10-18T07:57:27.049Z,61.10
2018-10-18T08:00:00.817Z,55.40
2018-10-18T08:02:29.934Z,97.93
2018-10-18T08:05:04.406Z,47.67
2018-10-18T08:07:33.626Z,58.07
2018-10-18T08:10:08.020Z,48.50
2018-10-18T08:12:37.196Z,57.03
2018-10-18T08:15:13.382Z,62.70
2018-10-18T08:17:42.600Z,67.70
2018-10-18T08:20:14.486Z,54.77
2018-10-18T08:22:43.669Z,50.93
2018-10-18T08:25:15.990Z,56.93
2018-10-18T08:27:44.681Z,55.73
2018-10-18T08:30:17.822Z,66.00
2018-10-18T08:32:47.515Z,58.10
2018-10-18T08:35:20.764Z,60.07
2018-10-18T08:37:50.537Z,57.20
2018-10-18T08:40:22.868Z,58.97
2018-10-18T08:42:52.290Z,60.20
2018-10-18T08:45:24.510Z,59.90
2018-10-18T08:47:53.212Z,59.10
2018-10-18T08:50:27.129Z,55.10
2018-10-18T08:52:56.624Z,53.37
2018-10-18T08:55:29.299Z,56.53
2018-10-18T08:57:58.053Z,56.70
2018-10-18T09:00:39.885Z,55.67
2018-10-18T09:03:09.076Z,55.97
2018-10-18T09:05:38.309Z,59.83
2018-10-18T09:08:07.321Z,64.43
2018-10-18T09:10:37.475Z,58.50
2018-10-18T09:13:06.716Z,59.43
2018-10-18T09:15:39.672Z,55.43
2018-10-18T09:18:08.393Z,60.07
2018-10-18T09:20:44.919Z,64.40
2018-10-18T09:23:15.410Z,62.40
2018-10-18T09:25:46.142Z,55.77
2018-10-18T09:28:15.398Z,62.07
2018-10-18T09:30:47.941Z,52.13
2018-10-18T09:33:17.587Z,59.80
2018-10-18T09:35:51.244Z,61.50
2018-10-18T09:38:20.497Z,64.63
2018-10-18T09:40:55.067Z,53.87
2018-10-18T09:43:23.769Z,55.17
2018-10-18T09:45:56.978Z,52.67
2018-10-18T09:48:26.195Z,47.00
2018-10-18T09:50:59.869Z,51.13
2018-10-18T09:53:29.491Z,52.37
2018-10-18T09:56:11.335Z,44.37
2018-10-18T09:58:40.513Z,43.63
2018-10-18T10:01:14.584Z,42.23
2018-10-18T10:03:44.085Z,47.17
2018-10-18T10:06:13.178Z,44.57
2018-10-18T10:11:21.088Z,38.47
2018-10-18T10:13:50.413Z,40.43
2018-10-18T10:16:19.628Z,38.67
2018-10-18T10:18:49.357Z,39.83
2018-10-18T10:21:18.619Z,36.77
2018-10-18T10:23:47.326Z,38.20
2018-10-18T10:26:21.269Z,42.37
2018-10-18T10:28:50.487Z,45.00
2018-10-18T10:31:22.351Z,46.37
2018-10-18T10:33:51.544Z,46.27
2018-10-18T10:36:25.454Z,42.67
2018-10-18T10:38:54.547Z,50.30
2018-10-18T10:41:27.038Z,47.90
2018-10-18T10:43:56.295Z,46.03
2018-10-18T10:46:29.227Z,48.80
2018-10-18T10:48:58.447Z,47.70
2018-10-18T10:51:32.475Z,43.10
2018-10-18T10:54:02.194Z,57.07
2018-10-18T10:56:35.417Z,49.77
2018-10-18T10:59:18.708Z,55.93
2018-10-18T11:01:48.038Z,61.20
2018-10-18T11:04:17.833Z,53.33
2018-10-18T11:09:15.656Z,49.53
2018-10-18T11:11:44.635Z,50.67
2018-10-18T11:14:14.042Z,52.17
2018-10-18T11:16:45.802Z,51.27
2018-10-18T11:19:14.863Z,49.23
2018-10-18T11:21:46.662Z,57.17
2018-10-18T11:24:15.980Z,46.70
2018-10-18T11:26:49.432Z,49.00
2018-10-18T11:29:19.100Z,54.00
2018-10-18T11:32:01.464Z,48.23
2018-10-18T11:34:31.309Z,47.67
2018-10-18T11:37:00.502Z,47.90
2018-10-18T11:39:29.700Z,48.10
2018-10-18T11:42:00.106Z,51.60
2018-10-18T11:44:34.871Z,45.77
2018-10-18T11:47:04.153Z,51.43
2018-10-18T11:49:33.648Z,54.90
2018-10-18T11:52:05.531Z,51.73
2018-10-18T11:54:34.797Z,46.30
2018-10-18T11:57:09.277Z,51.47
2018-10-18T11:59:37.981Z,52.77
2018-10-18T12:02:13.235Z,50.10
2018-10-18T12:04:42.789Z,52.57
2018-10-18T12:07:13.910Z,49.27
2018-10-18T12:09:42.649Z,48.53
2018-10-18T12:12:17.906Z,47.93
2018-10-18T12:14:47.213Z,47.50
2018-10-18T12:17:19.765Z,47.37
2018-10-18T12:19:49.917Z,53.47
2018-10-18T12:22:22.141Z,48.53
2018-10-18T12:24:50.876Z,48.57
2018-10-18T12:27:24.385Z,48.20
2018-10-18T12:29:54.111Z,44.40
2018-10-18T12:32:25.900Z,43.40
2018-10-18T12:34:55.452Z,48.70
2018-10-18T12:37:27.990Z,48.10
2018-10-18T12:39:57.249Z,44.30
2018-10-18T12:42:32.010Z,38.87
2018-10-18T12:45:01.237Z,41.63
2018-10-18T12:47:33.853Z,35.23
2018-10-18T12:50:04.238Z,30.33
2018-10-18T12:52:37.189Z,29.37
2018-10-18T12:55:06.927Z,25.87
2018-10-18T12:57:39.204Z,23.17
2018-10-18T13:00:08.841Z,23.37
2018-10-18T13:02:41.866Z,21.00
2018-10-18T13:05:11.745Z,19.27
2018-10-18T13:07:43.556Z,20.33
2018-10-18T13:10:13.577Z,21.53
2018-10-18T13:12:46.330Z,22.70
2018-10-18T13:15:16.022Z,20.90
2018-10-18T13:17:49.945Z,21.10
2018-10-18T13:20:18.840Z,19.23
2018-10-18T13:22:51.684Z,19.73
2018-10-18T13:25:21.339Z,15.40
2018-10-18T13:27:55.203Z,17.43
2018-10-18T13:30:24.418Z,18.40
2018-10-18T13:32:58.279Z,16.03
2018-10-18T13:35:28.077Z,15.80
2018-10-18T13:38:00.703Z,12.70
2018-10-18T13:40:29.496Z,13.13
2018-10-18T13:43:03.151Z,14.53
2018-10-18T13:45:32.381Z,10.30
2018-10-18T13:48:08.135Z,10.23
2018-10-18T13:50:36.835Z,8.20
2018-10-18T13:53:11.642Z,7.57
2018-10-18T13:55:41.809Z,9.10
2018-10-18T13:58:14.683Z,5.00
2018-10-18T14:00:43.893Z,5.73
2018-10-18T14:03:16.034Z,9.47
2018-10-18T14:05:45.415Z,7.97
2018-10-18T14:08:18.355Z,8.23
2018-10-18T14:10:48.033Z,4.67
2018-10-18T14:13:21.633Z,5.03
2018-10-18T14:15:50.882Z,6.63
2018-10-18T14:18:24.645Z,6.33
2018-10-18T14:20:54.328Z,4.97
2018-10-18T14:23:26.861Z,4.10
2018-10-18T14:25:57.027Z,5.30
2018-10-18T14:28:27.729Z,4.53
2018-10-18T14:31:00.231Z,3.97
2018-10-18T14:33:42.250Z,4.40
2018-10-18T14:36:12.107Z,3.80
2018-10-18T14:38:41.620Z,6.27
2018-10-18T14:41:10.634Z,3.60
2018-10-18T14:43:40.187Z,3.90
2018-10-18T14:46:09.842Z,3.00
2018-10-18T14:48:39.809Z,3.27
2018-10-18T14:51:08.958Z,5.83
2018-10-18T14:53:41.429Z,5.30
2018-10-18T14:56:10.263Z,3.20
2018-10-18T14:58:43.374Z,5.93
2018-10-18T15:01:13.432Z,4.77
2018-10-18T15:03:46.017Z,3.77
2018-10-18T15:06:15.877Z,2.90
2018-10-18T15:08:48.457Z,4.50
2018-10-18T15:11:17.854Z,3.37
2018-10-18T15:13:52.045Z,6.40
2018-10-18T15:16:21.379Z,7.83
2018-10-18T15:18:55.024Z,5.40
2018-10-18T15:21:23.832Z,5.53
2018-10-18T15:23:58.773Z,7.10
2018-10-18T15:26:27.734Z,7.53
2018-10-18T15:29:02.168Z,9.57
2018-10-18T15:31:31.748Z,8.33
2018-10-18T15:34:04.355Z,10.83
2018-10-18T15:36:33.584Z,12.37
2018-10-18T15:39:07.879Z,12.43
2018-10-18T15:41:37.746Z,15.67
2018-10-18T15:44:12.568Z,12.37
2018-10-18T15:46:41.294Z,16.50
2018-10-18T15:49:13.584Z,14.60
2018-10-18T15:51:43.087Z,15.60
2018-10-18T15:54:16.560Z,15.73
2018-10-18T15:56:45.199Z,14.60
2018-10-18T15:59:19.256Z,15.97
2018-10-18T16:01:48.902Z,16.57
2018-10-18T16:04:20.791Z,14.77
2018-10-18T16:06:50.304Z,17.17
2018-10-18T16:09:23.452Z,18.87
2018-10-18T16:11:52.717Z,15.43
2018-10-18T16:14:27.240Z,14.90
2018-10-18T16:16:56.071Z,16.53
2018-10-18T16:19:29.979Z,12.87
2018-10-18T16:21:59.144Z,12.43
2018-10-18T16:24:31.958Z,14.57
2018-10-18T16:27:00.785Z,15.23
2018-10-18T16:29:34.552Z,11.37
2018-10-18T16:32:03.339Z,16.07
2018-10-18T16:34:37.381Z,17.07
2018-10-18T16:37:07.152Z,12.67
2018-10-18T16:39:39.557Z,11.23
2018-10-18T16:42:08.267Z,15.37
2018-10-18T16:44:42.655Z,13.67
2018-10-18T16:47:12.177Z,12.20
2018-10-18T16:49:45.778Z,10.40
2018-10-18T16:52:15.837Z,12.77
2018-10-18T16:54:47.575Z,11.03
2018-10-18T16:57:16.358Z,14.33
2018-10-18T16:59:50.920Z,9.87
2018-10-18T17:02:20.158Z,10.80
2018-10-18T17:04:53.843Z,11.90
2018-10-18T17:07:22.561Z,11.17
2018-10-18T17:09:56.227Z,10.83
2018-10-18T17:12:25.757Z,11.80
2018-10-18T17:14:58.925Z,8.80
2018-10-18T17:17:28.193Z,11.07
2018-10-18T17:20:02.898Z,8.93
2018-10-18T17:22:31.732Z,7.83
2018-10-18T17:25:05.525Z,8.67
2018-10-18T17:27:35.300Z,12.27
2018-10-18T17:30:09.205Z,9.17
2018-10-18T17:32:38.183Z,11.63
2018-10-18T17:35:13.807Z,13.07
2018-10-18T17:37:42.543Z,11.60
2018-10-18T17:40:14.286Z,12.80
2018-10-18T17:42:43.973Z,13.37
2018-10-18T17:45:17.174Z,13.87
2018-10-18T17:47:46.373Z,12.47
2018-10-18T17:50:19.855Z,12.67
2018-10-18T17:52:49.102Z,15.70
2018-10-18T17:55:21.458Z,18.87
2018-10-18T17:57:51.069Z,15.47
2018-10-18T18:00:24.141Z,15.67
2018-10-18T18:02:52.832Z,16.87
2018-10-18T18:05:27.434Z,17.43
2018-10-18T18:07:56.146Z,16.87
2018-10-18T18:10:29.255Z,17.23
2018-10-18T18:12:58.317Z,17.30
2018-10-18T18:15:30.853Z,19.83
2018-10-18T18:18:00.799Z,21.03
2018-10-18T18:20:33.454Z,15.73
2018-10-18T18:23:03.100Z,17.20
2018-10-18T18:25:34.725Z,16.47
2018-10-18T18:28:03.732Z,20.67
2018-10-18T18:30:37.992Z,18.53
2018-10-18T18:33:07.356Z,15.30
2018-10-18T18:35:40.334Z,17.33
2018-10-18T18:38:09.825Z,15.43
2018-10-18T18:40:43.976Z,19.40
2018-10-18T18:43:14.189Z,15.63
2018-10-18T18:45:46.745Z,15.37
2018-10-18T18:48:15.931Z,17.50
2018-10-18T18:50:49.150Z,15.43
2018-10-18T18:53:19.475Z,15.73
2018-10-18T18:55:54.097Z,17.73
2018-10-18T18:58:23.323Z,15.33
2018-10-18T19:00:54.008Z,13.87
2018-10-18T19:03:23.564Z,16.97
2018-10-18T19:05:56.640Z,17.40
2018-10-18T19:08:26.736Z,15.40
2018-10-18T19:10:59.600Z,13.83
2018-10-18T19:13:29.152Z,19.27
2018-10-18T19:16:04.565Z,21.70
2018-10-18T19:18:33.779Z,17.43
2018-10-18T19:21:07.555Z,19.47
2018-10-18T19:23:36.716Z,19.90
2018-10-18T19:26:12.185Z,19.00
2018-10-18T19:28:42.004Z,21.30
2018-10-18T19:33:51.257Z,22.50
2018-10-18T19:36:22.006Z,22.90
2018-10-18T19:38:51.554Z,22.70
2018-10-18T19:41:21.724Z,19.50
2018-10-18T19:43:51.337Z,17.93
2018-10-18T19:46:20.612Z,23.27
2018-10-18T19:48:49.873Z,22.87
2018-10-18T19:51:23.494Z,20.60
2018-10-18T19:53:52.552Z,21.80
2018-10-18T19:56:24.805Z,26.00
2018-10-18T19:58:54.215Z,21.90
2018-10-18T20:01:28.941Z,23.93
2018-10-18T20:03:58.241Z,26.03
2018-10-18T20:06:30.552Z,23.37
2018-10-18T20:09:00.202Z,25.63
2018-10-18T20:11:32.252Z,25.00
2018-10-18T20:14:01.485Z,27.83
2018-10-18T20:16:34.295Z,26.83
2018-10-18T20:19:03.625Z,25.97
2018-10-18T20:24:12.785Z,31.10
2018-10-18T20:26:42.044Z,30.53
2018-10-18T20:29:11.146Z,29.00
2018-10-18T20:31:42.529Z,27.27
2018-10-18T20:34:11.746Z,28.70
2018-10-18T20:36:45.686Z,31.30
2018-10-18T20:39:14.548Z,29.47
2018-10-18T20:41:47.608Z,30.07
2018-10-18T20:44:16.616Z,32.70
2018-10-18T20:46:50.439Z,38.00
2018-10-18T20:49:19.804Z,32.83
2018-10-18T20:51:52.623Z,33.77
2018-10-18T20:54:21.821Z,30.70
2018-10-18T20:56:55.109Z,32.40
2018-10-18T20:59:24.582Z,31.77
2018-10-18T21:01:58.652Z,35.17
2018-10-18T21:04:27.838Z,40.13
2018-10-18T21:07:01.854Z,35.37
2018-10-18T21:09:31.065Z,35.77
2018-10-18T21:12:05.361Z,40.63
2018-10-18T21:14:34.390Z,38.53
2018-10-18T21:17:09.051Z,35.83
2018-10-18T21:19:38.198Z,42.37
2018-10-18T21:22:19.054Z,35.50
2018-10-18T21:24:48.501Z,39.67
2018-10-18T21:27:17.868Z,39.03
2018-10-18T21:29:47.597Z,41.13
2018-10-18T21:32:16.625Z,41.27
2018-10-18T21:34:46.161Z,40.67
2018-10-18T21:37:18.696Z,41.57
2018-10-18T21:39:47.900Z,46.63
2018-10-18T21:42:21.897Z,45.20
2018-10-18T21:44:51.552Z,43.20
2018-10-18T21:47:24.531Z,42.50
2018-10-18T21:49:53.707Z,45.00
2018-10-18T21:52:27.317Z,43.17
2018-10-18T21:54:56.476Z,43.47
2018-10-18T21:57:29.012Z,43.67
2018-10-18T21:59:58.465Z,45.70
2018-10-18T22:02:31.736Z,45.97
2018-10-18T22:05:00.932Z,44.37
2018-10-18T22:07:32.726Z,50.80
2018-10-18T22:10:01.411Z,47.30
2018-10-18T22:12:35.461Z,53.50
2018-10-18T22:15:06.026Z,47.37
2018-10-18T22:17:40.846Z,52.67
2018-10-18T22:20:10.451Z,55.07
2018-10-18T22:25:18.579Z,54.23
2018-10-18T22:27:48.021Z,52.40
2018-10-18T22:30:17.784Z,51.23
2018-10-18T22:32:47.071Z,49.90
2018-10-18T22:35:16.321Z,53.60
2018-10-18T22:37:50.408Z,56.47
2018-10-18T22:40:19.830Z,53.70
2018-10-18T22:42:52.559Z,53.63
2018-10-18T22:45:21.792Z,51.47
2018-10-18T22:47:55.327Z,55.87
2018-10-18T22:50:24.833Z,53.43
2018-10-18T22:53:06.514Z,58.43
2018-10-18T22:55:38.340Z,57.20
2018-10-18T22:58:07.051Z,52.43
2018-10-18T23:00:36.245Z,56.27
2018-10-18T23:03:05.852Z,62.10
2018-10-18T23:05:35.900Z,57.23
2018-10-18T23:08:08.273Z,58.37
2018-10-18T23:10:37.276Z,52.83
2018-10-18T23:13:13.393Z,57.23
2018-10-18T23:15:42.088Z,54.63
2018-10-18T23:18:15.092Z,57.50
2018-10-18T23:20:43.791Z,52.67
2018-10-18T23:23:17.850Z,55.00
2018-10-18T23:25:47.140Z,57.13
2018-10-18T23:28:18.160Z,56.57
2018-10-18T23:30:47.364Z,54.87
2018-10-18T23:33:22.796Z,52.40
2018-10-18T23:35:52.441Z,53.13
2018-10-18T23:38:23.962Z,52.03
2018-10-18T23:40:53.134Z,53.63
2018-10-18T23:43:25.752Z,52.53
2018-10-18T23:45:55.366Z,47.83
2018-10-18T23:48:27.911Z,53.90
2018-10-18T23:50:57.157Z,51.83
2018-10-18T23:53:38.310Z,53.17
2018-10-18T23:56:06.999Z,47.70
2018-10-18T23:58:35.964Z,64.03
